Terminal Aerodrome Forecast
Issued by NWS Albany, NY

Home | Current Version | Previous Version | Text Only | Print | Product List | Glossary On
Versions: 1 2 3 4 5 6 7 8 9 10 11 12 13 14 15 16 17 18 19 20 21 22
000
FTUS41 KALY 312300
TAFGFL
TAF
KGFL 312327Z 0100/0124 00000KT P6SM SKC
     FM010300 00000KT P6SM SCT035 SCT060
     FM010900 VRB03KT P6SM OVC035
     FM011400 05004KT P6SM SCT035 BKN200
     FM012200 05005KT P6SM OVC035=

USA.gov is the U.S. government's official web portal to all federal, state and local government web resources and services.